Time;durP1;ratioP1;P1;durP2;ratioP2;P2;SDS_P1;SDS_P2;PMS_P1;PMS_P2;Temp;Humidity;BMP_temperature;BMP_pressure;BME280_temperature;BME280_humidity;BME280_pressure;Samples;Min_cycle;Max_cycle;Signal;HPM_P1;HPM_P2
2023/05/28 00:00:23;;;;;;;14.20;7.30;;;;;;;;;;4909934;29;20044;-70
2023/05/28 00:04:03;;;;;;;11.43;7.32;;;;;;;;;;4909460;29;20087;-70
2023/05/28 00:07:43;;;;;;;16.65;8.10;;;;;;;;;;4912274;29;20040;-73
2023/05/28 00:11:25;;;;;;;13.07;6.75;;;;;;;;;;4917581;29;20472;-70
2023/05/28 00:15:05;;;;;;;13.40;7.43;;;;;;;;;;4915225;29;20056;-70
2023/05/28 00:18:45;;;;;;;14.13;7.53;;;;;;;;;;4910835;29;20046;-71
2023/05/28 00:22:25;;;;;;;12.55;6.68;;;;;;;;;;4910882;29;20544;-71
2023/05/28 00:26:06;;;;;;;13.07;6.50;;;;;;;;;;4908777;29;20052;-71
2023/05/28 00:29:46;;;;;;;9.30;5.75;;;;;;;;;;4909850;29;20182;-72
2023/05/28 00:33:26;;;;;;;12.68;6.07;;;;;;;;;;4905602;29;20052;-72
2023/05/28 00:37:07;;;;;;;11.77;6.35;;;;;;;;;;4909789;29;20056;-70
2023/05/28 00:40:47;;;;;;;10.35;5.80;;;;;;;;;;4907676;29;20048;-72
2023/05/28 00:44:27;;;;;;;11.23;5.68;;;;;;;;;;4902170;29;20091;-69
2023/05/28 00:48:08;;;;;;;10.48;4.80;;;;;;;;;;4906650;29;20098;-69
2023/05/28 00:51:48;;;;;;;14.75;4.97;;;;;;;;;;4909118;29;20143;-70
2023/05/28 00:55:28;;;;;;;12.23;5.70;;;;;;;;;;4907444;29;20040;-70
2023/05/28 00:59:09;;;;;;;14.30;5.72;;;;;;;;;;4908966;29;20549;-70
2023/05/28 01:02:49;;;;;;;11.82;5.25;;;;;;;;;;4910860;29;20052;-69
2023/05/28 01:06:29;;;;;;;15.38;4.90;;;;;;;;;;4913454;29;20318;-71
2023/05/28 01:10:10;;;;;;;14.07;5.93;;;;;;;;;;4910085;29;20485;-69
2023/05/28 01:13:50;;;;;;;13.18;5.40;;;;;;;;;;4910480;29;20060;-72
2023/05/28 01:17:31;;;;;;;15.88;5.28;;;;;;;;;;4912440;29;20408;-69
2023/05/28 01:21:11;;;;;;;13.65;5.30;;;;;;;;;;4909625;29;20129;-69
2023/05/28 01:24:51;;;;;;;10.85;5.63;;;;;;;;;;4910102;29;20044;-69
2023/05/28 01:28:32;;;;;;;12.85;5.53;;;;;;;;;;4912877;29;20623;-70
2023/05/28 01:32:12;;;;;;;11.30;5.32;;;;;;;;;;4911235;29;20055;-69
2023/05/28 01:35:52;;;;;;;12.65;5.63;;;;;;;;;;4909526;29;20056;-71
2023/05/28 01:39:37;;;;;;;10.63;5.15;;;;;;;;;;4907114;29;20103;-69
2023/05/28 01:43:17;;;;;;;11.77;5.00;;;;;;;;;;4911664;29;20441;-73
2023/05/28 01:46:57;;;;;;;8.95;5.22;;;;;;;;;;4907862;29;20044;-70
2023/05/28 01:50:37;;;;;;;13.40;5.45;;;;;;;;;;4912170;29;20051;-71
2023/05/28 01:54:18;;;;;;;9.43;5.28;;;;;;;;;;4906858;29;20111;-71
2023/05/28 01:57:59;;;;;;;8.65;5.55;;;;;;;;;;4908098;29;20448;-72
2023/05/28 02:01:06;;;;;;;9.68;5.43;;;;;;;;;;4912617;29;20423;-71
2023/05/28 02:04:46;;;;;;;14.07;5.88;;;;;;;;;;4911213;29;20040;-70
2023/05/28 02:08:27;;;;;;;13.48;5.95;;;;;;;;;;4911936;29;20052;-70
2023/05/28 02:12:07;;;;;;;11.88;5.43;;;;;;;;;;4912261;29;20405;-69
2023/05/28 02:15:48;;;;;;;11.25;5.40;;;;;;;;;;4912677;29;20483;-71
2023/05/28 02:19:28;;;;;;;12.05;5.97;;;;;;;;;;4911098;29;20384;-71
2023/05/28 02:23:08;;;;;;;14.43;6.10;;;;;;;;;;4906205;29;20048;-69
2023/05/28 02:26:50;;;;;;;10.45;5.50;;;;;;;;;;4909189;29;20083;-70
2023/05/28 02:30:29;;;;;;;12.18;5.68;;;;;;;;;;4913925;29;20401;-71
2023/05/28 02:34:09;;;;;;;10.73;5.45;;;;;;;;;;4909512;29;20052;-72
2023/05/28 02:37:50;;;;;;;11.15;5.93;;;;;;;;;;4910236;29;20497;-69
2023/05/28 02:41:30;;;;;;;11.13;5.97;;;;;;;;;;4911633;29;20182;-72
2023/05/28 02:45:10;;;;;;;13.38;5.68;;;;;;;;;;4912794;29;20067;-73
2023/05/28 02:48:51;;;;;;;12.05;5.90;;;;;;;;;;4905430;29;20047;-69
2023/05/28 02:52:31;;;;;;;11.25;5.68;;;;;;;;;;4906227;29;20505;-72
2023/05/28 02:56:11;;;;;;;11.65;6.05;;;;;;;;;;4913494;29;20075;-70
2023/05/28 02:59:51;;;;;;;8.45;4.35;;;;;;;;;;4905291;29;20079;-72
2023/05/28 03:03:32;;;;;;;11.80;5.20;;;;;;;;;;4905934;29;20056;-71
2023/05/28 03:07:13;;;;;;;12.82;5.65;;;;;;;;;;4910839;29;20056;-69
2023/05/28 03:10:55;;;;;;;16.25;6.18;;;;;;;;;;4909955;29;20409;-71
2023/05/28 03:14:35;;;;;;;13.75;5.63;;;;;;;;;;4904401;29;20044;-70
2023/05/28 03:18:16;;;;;;;13.52;6.30;;;;;;;;;;4906078;29;20083;-69
2023/05/28 03:21:57;;;;;;;13.27;5.93;;;;;;;;;;4907666;29;20688;-70
2023/05/28 03:25:37;;;;;;;13.73;6.07;;;;;;;;;;4911425;29;20041;-68
2023/05/28 03:29:18;;;;;;;12.05;5.32;;;;;;;;;;4903470;29;20123;-70
2023/05/28 03:32:58;;;;;;;7.18;4.97;;;;;;;;;;4904521;29;20135;-69
2023/05/28 03:36:40;;;;;;;9.98;4.70;;;;;;;;;;4910681;29;20473;-70
2023/05/28 03:40:19;;;;;;;6.38;3.70;;;;;;;;;;4908269;29;20055;-71
2023/05/28 03:43:59;;;;;;;8.93;4.72;;;;;;;;;;4912008;29;20133;-70
2023/05/28 03:47:39;;;;;;;10.63;4.07;;;;;;;;;;4908853;29;20060;-71
2023/05/28 03:51:21;;;;;;;7.53;4.32;;;;;;;;;;4909750;29;20096;-70
2023/05/28 03:55:01;;;;;;;8.68;4.60;;;;;;;;;;4908856;29;20048;-71
2023/05/28 03:58:41;;;;;;;6.80;3.95;;;;;;;;;;4902583;29;20052;-71
2023/05/28 04:02:22;;;;;;;9.10;4.55;;;;;;;;;;4909957;29;20079;-69
2023/05/28 04:06:02;;;;;;;15.13;4.20;;;;;;;;;;4910312;29;20056;-70
2023/05/28 04:09:42;;;;;;;7.30;4.00;;;;;;;;;;4905507;29;20173;-70
2023/05/28 04:13:23;;;;;;;10.70;4.57;;;;;;;;;;4909828;29;20056;-72
2023/05/28 04:17:05;;;;;;;9.77;4.80;;;;;;;;;;4910973;29;20421;-72
2023/05/28 04:20:45;;;;;;;10.05;5.03;;;;;;;;;;4912163;29;20048;-69
2023/05/28 04:24:25;;;;;;;11.05;4.65;;;;;;;;;;4907710;29;20092;-71
2023/05/28 04:28:05;;;;;;;11.45;5.22;;;;;;;;;;4911052;29;20060;-70
2023/05/28 04:31:47;;;;;;;9.30;4.82;;;;;;;;;;4905425;29;20539;-71
2023/05/28 04:35:29;;;;;;;13.02;6.32;;;;;;;;;;4914255;29;20151;-70
2023/05/28 04:39:08;;;;;;;13.43;6.30;;;;;;;;;;4910648;29;20453;-70
2023/05/28 04:42:48;;;;;;;14.80;6.55;;;;;;;;;;4914429;29;20079;-69
2023/05/28 04:46:29;;;;;;;14.57;6.22;;;;;;;;;;4911114;29;20473;-72
2023/05/28 04:50:09;;;;;;;13.75;6.90;;;;;;;;;;4912724;29;20051;-68
2023/05/28 04:53:49;;;;;;;15.48;7.20;;;;;;;;;;4906339;29;20492;-68
2023/05/28 04:57:30;;;;;;;12.90;7.50;;;;;;;;;;4913692;29;20040;-70
2023/05/28 05:01:11;;;;;;;16.00;7.88;;;;;;;;;;4916767;29;20040;-70
2023/05/28 05:04:51;;;;;;;16.50;8.77;;;;;;;;;;4912617;29;20425;-71
2023/05/28 05:08:31;;;;;;;16.60;9.93;;;;;;;;;;4909666;29;20134;-70
2023/05/28 05:12:12;;;;;;;20.60;9.68;;;;;;;;;;4913960;29;20044;-69
2023/05/28 05:15:52;;;;;;;19.13;9.73;;;;;;;;;;4916428;29;20106;-68
2023/05/28 05:19:32;;;;;;;16.73;9.70;;;;;;;;;;4907837;29;20386;-69
2023/05/28 05:23:13;;;;;;;15.50;9.30;;;;;;;;;;4917044;29;20055;-71
2023/05/28 05:26:53;;;;;;;16.88;8.68;;;;;;;;;;4908072;29;20059;-70
2023/05/28 05:30:35;;;;;;;14.48;8.70;;;;;;;;;;4912106;29;20048;-70
2023/05/28 05:34:15;;;;;;;14.43;8.23;;;;;;;;;;4911917;29;20040;-69
2023/05/28 05:37:57;;;;;;;19.70;8.95;;;;;;;;;;4912144;29;21248;-70
2023/05/28 05:41:37;;;;;;;15.13;7.47;;;;;;;;;;4912826;29;20048;-70
2023/05/28 05:45:20;;;;;;;19.20;7.30;;;;;;;;;;4906640;29;20044;-69
2023/05/28 05:49:00;;;;;;;17.98;7.50;;;;;;;;;;4908176;29;20052;-70
2023/05/28 05:52:41;;;;;;;12.75;6.50;;;;;;;;;;4915954;29;20072;-69
2023/05/28 05:56:21;;;;;;;16.52;6.75;;;;;;;;;;4910093;29;20083;-68
2023/05/28 06:00:03;;;;;;;15.77;6.90;;;;;;;;;;4911405;29;20127;-70
2023/05/28 06:03:42;;;;;;;11.35;6.28;;;;;;;;;;4911313;29;20059;-70
2023/05/28 06:07:23;;;;;;;18.90;6.53;;;;;;;;;;4911786;29;20103;-71
2023/05/28 06:11:04;;;;;;;18.40;6.40;;;;;;;;;;4912233;29;20060;-69
2023/05/28 06:14:44;;;;;;;15.32;6.43;;;;;;;;;;4911128;29;20039;-70
2023/05/28 06:18:24;;;;;;;16.73;6.00;;;;;;;;;;4909924;29;20043;-70
2023/05/28 06:22:05;;;;;;;10.45;5.80;;;;;;;;;;4910504;29;20044;-69
2023/05/28 06:25:45;;;;;;;18.70;5.82;;;;;;;;;;4907603;29;20056;-70
2023/05/28 06:29:25;;;;;;;10.18;5.38;;;;;;;;;;4905900;29;20040;-68
2023/05/28 06:33:06;;;;;;;13.90;5.60;;;;;;;;;;4907965;29;20043;-70
2023/05/28 06:36:46;;;;;;;12.25;5.28;;;;;;;;;;4906430;29;20040;-71
2023/05/28 06:40:27;;;;;;;19.23;6.22;;;;;;;;;;4911970;29;20048;-68
2023/05/28 06:44:07;;;;;;;18.92;5.97;;;;;;;;;;4907736;29;20493;-71
2023/05/28 06:47:47;;;;;;;15.00;5.20;;;;;;;;;;4903078;29;20116;-71
2023/05/28 06:51:29;;;;;;;11.30;5.50;;;;;;;;;;4900090;29;20637;-74
2023/05/28 06:55:09;;;;;;;15.43;5.20;;;;;;;;;;4901095;29;20059;-71
2023/05/28 06:58:50;;;;;;;11.75;5.28;;;;;;;;;;4900336;29;20051;-70
2023/05/28 07:02:31;;;;;;;14.73;5.53;;;;;;;;;;4903549;29;20516;-71
2023/05/28 07:06:12;;;;;;;15.38;6.07;;;;;;;;;;4901819;29;20111;-70
2023/05/28 07:09:53;;;;;;;15.50;5.10;;;;;;;;;;4903736;29;20134;-70
2023/05/28 07:13:33;;;;;;;17.88;5.57;;;;;;;;;;4903721;29;20112;-67
2023/05/28 07:17:13;;;;;;;14.82;5.18;;;;;;;;;;4902642;29;20621;-70
2023/05/28 07:20:54;;;;;;;16.75;5.63;;;;;;;;;;4903502;29;20099;-72
2023/05/28 07:24:36;;;;;;;15.40;5.30;;;;;;;;;;4901293;29;20186;-69
2023/05/28 07:28:16;;;;;;;13.15;5.28;;;;;;;;;;4906005;29;20477;-73
2023/05/28 07:31:57;;;;;;;15.13;6.55;;;;;;;;;;4901367;29;20084;-71
2023/05/28 07:35:38;;;;;;;16.98;6.75;;;;;;;;;;4897250;29;20052;-72
2023/05/28 07:39:18;;;;;;;16.15;5.35;;;;;;;;;;4902218;29;20465;-74
2023/05/28 07:42:59;;;;;;;10.57;5.30;;;;;;;;;;4905171;29;20063;-71
2023/05/28 07:46:39;;;;;;;26.60;5.95;;;;;;;;;;4907656;29;20083;-76
2023/05/28 07:50:21;;;;;;;18.33;6.15;;;;;;;;;;4915893;29;20422;-74
2023/05/28 07:54:01;;;;;;;11.60;5.43;;;;;;;;;;4896006;29;20056;-71
2023/05/28 07:57:41;;;;;;;20.63;6.07;;;;;;;;;;4900965;29;20083;-69
2023/05/28 08:01:23;;;;;;;20.00;7.20;;;;;;;;;;4899424;29;20055;-76
2023/05/28 08:05:04;;;;;;;21.70;6.72;;;;;;;;;;4896955;29;20052;-69
2023/05/28 08:08:44;;;;;;;19.88;8.02;;;;;;;;;;4905568;29;20063;-71
2023/05/28 08:12:25;;;;;;;16.13;6.90;;;;;;;;;;4908878;29;20115;-77
2023/05/28 08:16:05;;;;;;;15.57;6.63;;;;;;;;;;4908006;29;20863;-78
2023/05/28 08:19:45;;;;;;;16.52;7.22;;;;;;;;;;4918249;29;20048;-79
2023/05/28 08:23:25;;;;;;;13.40;6.43;;;;;;;;;;4909811;29;20056;-79
2023/05/28 08:27:07;;;;;;;15.95;6.40;;;;;;;;;;4913911;29;20055;-76
2023/05/28 08:30:47;;;;;;;16.05;6.82;;;;;;;;;;4908972;29;20491;-78
2023/05/28 08:34:28;;;;;;;14.00;6.90;;;;;;;;;;4907160;29;20111;-76
2023/05/28 08:38:08;;;;;;;19.15;6.47;;;;;;;;;;4906036;29;20637;-78
2023/05/28 08:41:48;;;;;;;20.98;7.43;;;;;;;;;;4907744;29;20066;-69
2023/05/28 08:45:29;;;;;;;15.15;5.20;;;;;;;;;;4908253;29;20047;-83
2023/05/28 08:49:09;;;;;;;18.77;6.20;;;;;;;;;;4930737;29;20044;-83
2023/05/28 08:52:50;;;;;;;12.23;5.60;;;;;;;;;;4970114;23;20067;-64
2023/05/28 08:56:31;;;;;;;14.65;6.57;;;;;;;;;;4905252;29;20047;-62
2023/05/28 09:00:11;;;;;;;10.90;6.25;;;;;;;;;;4903159;29;20087;-64
2023/05/28 09:03:53;;;;;;;14.80;6.57;;;;;;;;;;4906425;29;20421;-63
2023/05/28 09:07:33;;;;;;;15.43;6.32;;;;;;;;;;4903320;29;20139;-63
2023/05/28 09:11:14;;;;;;;13.73;5.50;;;;;;;;;;4905631;29;20055;-64
2023/05/28 09:14:56;;;;;;;13.35;5.00;;;;;;;;;;4901372;29;20055;-62
2023/05/28 09:18:40;;;;;;;18.40;5.30;;;;;;;;;;4901239;29;20425;-64
2023/05/28 09:22:21;;;;;;;14.30;4.82;;;;;;;;;;4908515;29;20114;-64
2023/05/28 09:26:01;;;;;;;14.95;5.57;;;;;;;;;;4909142;29;20070;-65
2023/05/28 09:29:44;;;;;;;11.32;4.63;;;;;;;;;;4904417;29;20048;-61
2023/05/28 09:33:25;;;;;;;16.08;4.60;;;;;;;;;;4902094;29;20596;-62
2023/05/28 09:36:25;;;;;;;13.20;4.60;;;;;;;;;;4900285;29;20076;-67
2023/05/28 09:38:55;;;;;;;15.38;4.85;;;;;;;;;;4896132;29;20174;-62
2023/05/28 09:41:33;;;;;;;13.60;5.38;;;;;;;;;;4900178;29;20568;-62
2023/05/28 09:44:05;;;;;;;14.25;5.30;;;;;;;;;;4912424;29;20132;-63
2023/05/28 09:46:34;;;;;;;15.13;4.57;;;;;;;;;;4905271;29;20094;-62
2023/05/28 09:49:03;;;;;;;22.42;5.20;;;;;;;;;;4895636;29;20688;-61
2023/05/28 09:51:32;;;;;;;16.75;4.88;;;;;;;;;;4910156;29;20059;-64
2023/05/28 09:54:03;;;;;;;14.35;4.93;;;;;;;;;;4900359;29;20573;-63
2023/05/28 09:56:33;;;;;;;13.68;5.43;;;;;;;;;;4891372;29;20059;-68
2023/05/28 09:59:00;;;;;;;14.60;4.93;;;;;;;;;;4889797;29;20525;-62
2023/05/28 10:02:22;;;;;;;15.95;4.38;;;;;;;;;;4897411;29;20053;-63
2023/05/28 10:04:54;;;;;;;20.33;4.90;;;;;;;;;;4887398;29;20365;-64
2023/05/28 10:07:24;;;;;;;16.25;3.78;;;;;;;;;;4907294;29;20052;-63
2023/05/28 10:10:00;;;;;;;15.45;4.53;;;;;;;;;;4902834;29;20600;-63
2023/05/28 10:12:29;;;;;;;14.88;3.90;;;;;;;;;;4903847;29;20068;-60
2023/05/28 10:14:57;;;;;;;12.70;3.85;;;;;;;;;;4894094;29;21127;-63
2023/05/28 10:17:23;;;;;;;14.27;4.18;;;;;;;;;;4905790;29;20486;-63
2023/05/28 10:19:50;;;;;;;15.55;4.50;;;;;;;;;;4904064;29;20044;-60
2023/05/28 10:22:17;;;;;;;17.65;4.53;;;;;;;;;;4906845;29;20107;-64
2023/05/28 10:24:47;;;;;;;14.18;4.07;;;;;;;;;;4906964;29;20072;-64
2023/05/28 10:27:18;;;;;;;14.55;4.00;;;;;;;;;;4902378;29;20048;-64
2023/05/28 10:29:46;;;;;;;13.73;3.65;;;;;;;;;;4900145;29;20064;-63
2023/05/28 10:32:15;;;;;;;18.33;4.25;;;;;;;;;;4897245;29;20067;-64
2023/05/28 10:34:42;;;;;;;14.30;4.15;;;;;;;;;;4901529;29;20437;-64
2023/05/28 10:37:09;;;;;;;23.40;5.80;;;;;;;;;;4903211;29;20056;-62
2023/05/28 10:40:03;;;;;;;17.27;6.00;;;;;;;;;;4895430;29;20276;-64
2023/05/28 10:43:45;;;;;;;15.52;5.13;;;;;;;;;;4903035;29;20074;-62
2023/05/28 10:47:24;;;;;;;19.55;6.38;;;;;;;;;;4901871;29;20044;-63
2023/05/28 10:51:18;;;;;;;14.70;5.60;;;;;;;;;;4898638;29;20052;-65
2023/05/28 10:54:38;;;;;;;17.15;4.82;;;;;;;;;;4900749;29;20061;-65
2023/05/28 10:58:24;;;;;;;17.15;4.97;;;;;;;;;;4901358;29;20457;-62
2023/05/28 11:01:14;;;;;;;15.18;4.32;;;;;;;;;;4901175;29;20094;-67
2023/05/28 11:04:55;;;;;;;19.10;5.13;;;;;;;;;;4901933;29;20072;-62
2023/05/28 11:08:35;;;;;;;16.52;5.70;;;;;;;;;;4901248;29;20056;-63
2023/05/28 11:12:17;;;;;;;13.75;5.20;;;;;;;;;;4902102;29;20247;-67
2023/05/28 11:15:57;;;;;;;19.35;5.85;;;;;;;;;;4899105;29;20500;-62
2023/05/28 11:19:39;;;;;;;25.05;5.10;;;;;;;;;;4896861;29;20091;-64
2023/05/28 11:22:39;;;;;;;15.50;4.55;;;;;;;;;;4896095;29;20086;-64
2023/05/28 11:25:45;;;;;;;14.82;4.18;;;;;;;;;;4900234;29;20146;-63
2023/05/28 11:29:44;;;;;;;16.42;4.60;;;;;;;;;;4905368;29;20054;-62
2023/05/28 11:33:24;;;;;;;15.43;4.80;;;;;;;;;;4899547;29;20429;-63
2023/05/28 11:36:46;;;;;;;13.18;4.80;;;;;;;;;;4893583;29;20500;-62
2023/05/28 11:39:52;;;;;;;16.67;4.40;;;;;;;;;;4895292;29;20152;-62
2023/05/28 11:43:33;;;;;;;13.23;4.38;;;;;;;;;;4904148;29;20044;-64
2023/05/28 11:47:13;;;;;;;15.95;4.72;;;;;;;;;;4902607;29;20064;-63
2023/05/28 11:50:54;;;;;;;16.52;4.65;;;;;;;;;;4905395;29;20192;-63
2023/05/28 11:54:34;;;;;;;22.00;4.85;;;;;;;;;;4898728;29;20051;-65
2023/05/28 11:58:15;;;;;;;23.45;6.20;;;;;;;;;;4902174;29;20056;-61
2023/05/28 12:01:56;;;;;;;25.38;7.20;;;;;;;;;;4902615;29;20083;-65
2023/05/28 12:05:36;;;;;;;17.52;4.43;;;;;;;;;;4896998;29;20485;-61
2023/05/28 12:08:51;;;;;;;19.15;4.90;;;;;;;;;;4902226;29;20777;-63
2023/05/28 12:12:23;;;;;;;17.65;5.43;;;;;;;;;;4903195;29;20040;-63
2023/05/28 12:16:03;;;;;;;33.17;8.50;;;;;;;;;;4902685;29;20052;-65
2023/05/28 12:19:44;;;;;;;21.98;6.65;;;;;;;;;;4903071;29;20417;-62
2023/05/28 12:23:30;;;;;;;21.10;5.53;;;;;;;;;;4905837;29;20119;-64
2023/05/28 12:27:11;;;;;;;15.32;4.60;;;;;;;;;;4900638;29;20078;-64
2023/05/28 12:30:52;;;;;;;20.77;4.50;;;;;;;;;;4908296;29;20067;-64
2023/05/28 12:34:01;;;;;;;11.93;4.07;;;;;;;;;;4901951;29;20055;-69
2023/05/28 12:37:41;;;;;;;13.10;4.25;;;;;;;;;;4899014;29;20056;-64
2023/05/28 12:41:23;;;;;;;26.52;4.20;;;;;;;;;;4903163;29;20058;-63
2023/05/28 12:45:03;;;;;;;13.25;3.28;;;;;;;;;;4898292;29;20173;-64
2023/05/28 12:48:43;;;;;;;9.95;3.95;;;;;;;;;;4898766;29;20105;-66
2023/05/28 12:52:24;;;;;;;14.75;3.28;;;;;;;;;;4910762;29;20043;-65
2023/05/28 12:56:05;;;;;;;14.93;4.97;;;;;;;;;;4917784;29;20066;-71
2023/05/28 12:59:45;;;;;;;14.77;4.85;;;;;;;;;;4911713;29;20111;-64
2023/05/28 13:03:26;;;;;;;13.45;3.70;;;;;;;;;;4907755;29;20126;-66
2023/05/28 13:07:08;;;;;;;21.30;4.50;;;;;;;;;;4909892;29;20055;-64
2023/05/28 13:10:48;;;;;;;13.43;3.70;;;;;;;;;;4907951;29;21080;-66
2023/05/28 13:14:30;;;;;;;14.48;3.20;;;;;;;;;;4912088;29;20055;-62
2023/05/28 13:18:10;;;;;;;16.95;3.58;;;;;;;;;;4908522;29;20074;-64
2023/05/28 13:21:50;;;;;;;10.60;3.47;;;;;;;;;;4908331;29;20051;-65
2023/05/28 13:25:31;;;;;;;15.52;3.92;;;;;;;;;;4913640;29;20063;-63
2023/05/28 13:29:11;;;;;;;13.48;3.60;;;;;;;;;;4902879;29;20401;-64
2023/05/28 13:32:52;;;;;;;12.07;3.22;;;;;;;;;;4908452;29;20063;-64
2023/05/28 13:36:34;;;;;;;15.98;3.90;;;;;;;;;;4910224;29;20052;-66
2023/05/28 13:40:14;;;;;;;12.80;3.60;;;;;;;;;;4910944;29;20404;-64
2023/05/28 13:43:54;;;;;;;13.70;4.35;;;;;;;;;;4905257;29;20067;-68
2023/05/28 13:47:35;;;;;;;15.95;4.22;;;;;;;;;;4898655;29;20575;-63
2023/05/28 13:51:15;;;;;;;10.15;3.72;;;;;;;;;;4912109;29;20067;-64
2023/05/28 13:54:56;;;;;;;10.15;3.70;;;;;;;;;;4909474;29;20060;-63
2023/05/28 13:58:36;;;;;;;9.27;3.75;;;;;;;;;;4906573;29;20124;-67
2023/05/28 14:02:19;;;;;;;14.15;3.67;;;;;;;;;;4913455;29;20052;-63
2023/05/28 14:05:59;;;;;;;12.15;3.60;;;;;;;;;;4909659;29;20107;-63
2023/05/28 14:09:39;;;;;;;10.90;4.05;;;;;;;;;;4904446;29;21167;-63
2023/05/28 14:13:31;;;;;;;12.38;3.80;;;;;;;;;;4910211;29;20056;-63
2023/05/28 14:17:06;;;;;;;13.68;4.25;;;;;;;;;;4912911;29;20060;-63
2023/05/28 14:20:45;;;;;;;9.65;3.80;;;;;;;;;;4909711;29;20036;-64
2023/05/28 14:24:25;;;;;;;11.82;3.63;;;;;;;;;;4914815;29;20070;-65
2023/05/28 14:28:07;;;;;;;14.73;4.22;;;;;;;;;;4912213;29;20051;-66
2023/05/28 14:31:47;;;;;;;16.17;4.00;;;;;;;;;;4908258;29;20047;-65
2023/05/28 14:35:27;;;;;;;13.48;4.07;;;;;;;;;;4910106;29;20048;-63
2023/05/28 14:39:10;;;;;;;10.02;3.72;;;;;;;;;;4900887;29;20488;-65
2023/05/28 14:42:51;;;;;;;12.32;3.63;;;;;;;;;;4911115;29;20063;-65
2023/05/28 14:46:31;;;;;;;12.00;3.30;;;;;;;;;;4909615;29;20512;-66
2023/05/28 14:50:12;;;;;;;10.38;3.05;;;;;;;;;;4910601;29;20056;-68
2023/05/28 14:53:53;;;;;;;10.32;3.38;;;;;;;;;;4909018;29;20135;-65
2023/05/28 14:57:36;;;;;;;16.50;4.28;;;;;;;;;;4910012;29;20060;-66
2023/05/28 15:01:15;;;;;;;19.50;4.40;;;;;;;;;;4912899;29;20087;-64
2023/05/28 15:04:55;;;;;;;12.07;3.50;;;;;;;;;;4907195;29;20063;-63
2023/05/28 15:08:36;;;;;;;10.07;3.50;;;;;;;;;;4902212;29;20401;-66
2023/05/28 15:12:17;;;;;;;17.33;3.83;;;;;;;;;;4906780;29;20067;-65
2023/05/28 15:15:57;;;;;;;13.90;3.67;;;;;;;;;;4911575;29;20397;-66
2023/05/28 15:19:37;;;;;;;16.55;4.30;;;;;;;;;;4905303;29;20048;-63
2023/05/28 15:23:18;;;;;;;16.33;4.25;;;;;;;;;;4902780;29;20783;-63
2023/05/28 15:26:58;;;;;;;18.40;4.63;;;;;;;;;;4909099;29;20055;-65
2023/05/28 15:30:39;;;;;;;13.18;4.53;;;;;;;;;;4901510;29;20747;-64
2023/05/28 15:34:19;;;;;;;14.32;5.03;;;;;;;;;;4895012;29;20194;-63
2023/05/28 15:37:59;;;;;;;11.15;4.22;;;;;;;;;;4917423;29;20098;-67
2023/05/28 15:41:40;;;;;;;15.32;5.20;;;;;;;;;;4901374;29;20131;-66
2023/05/28 15:45:20;;;;;;;13.38;4.20;;;;;;;;;;4903678;29;20052;-62
2023/05/28 15:49:00;;;;;;;13.60;4.22;;;;;;;;;;4908926;29;20132;-66
2023/05/28 15:52:44;;;;;;;13.35;3.90;;;;;;;;;;4910024;29;20175;-64
2023/05/28 15:56:24;;;;;;;14.35;3.35;;;;;;;;;;4917847;29;20738;-64
2023/05/28 16:00:06;;;;;;;17.25;3.90;;;;;;;;;;4903686;29;20506;-63
2023/05/28 16:03:47;;;;;;;12.57;3.25;;;;;;;;;;4904295;29;20055;-65
2023/05/28 16:07:29;;;;;;;17.38;3.38;;;;;;;;;;4909665;29;20441;-64
2023/05/28 16:11:09;;;;;;;16.15;3.90;;;;;;;;;;4904945;29;20409;-63
2023/05/28 16:14:50;;;;;;;11.90;3.20;;;;;;;;;;4900290;29;20462;-63
2023/05/28 16:18:30;;;;;;;15.60;3.60;;;;;;;;;;4901082;29;20049;-62
2023/05/28 16:22:10;;;;;;;16.45;3.40;;;;;;;;;;4910627;29;20146;-64
2023/05/28 16:25:51;;;;;;;15.43;3.35;;;;;;;;;;4906689;29;20497;-64
2023/05/28 16:29:32;;;;;;;14.98;3.40;;;;;;;;;;4902346;29;20055;-64
2023/05/28 16:33:13;;;;;;;15.40;3.88;;;;;;;;;;4910233;29;20131;-64
2023/05/28 16:36:53;;;;;;;15.00;5.25;;;;;;;;;;4912355;29;20048;-63
2023/05/28 16:40:33;;;;;;;15.48;4.22;;;;;;;;;;4914140;29;20052;-64
2023/05/28 16:44:15;;;;;;;16.52;4.18;;;;;;;;;;4908154;29;20052;-62
2023/05/28 16:47:56;;;;;;;16.13;4.15;;;;;;;;;;4910492;29;20083;-64
2023/05/28 16:51:36;;;;;;;10.63;3.53;;;;;;;;;;4914835;29;20432;-69
2023/05/28 16:55:19;;;;;;;17.02;3.88;;;;;;;;;;4915354;29;20058;-66
2023/05/28 16:59:00;;;;;;;15.15;3.83;;;;;;;;;;4909434;29;20520;-62
2023/05/28 17:02:41;;;;;;;15.98;3.78;;;;;;;;;;4910583;29;20047;-68
2023/05/28 17:06:20;;;;;;;13.63;4.80;;;;;;;;;;4909481;29;20056;-63
2023/05/28 17:10:00;;;;;;;12.75;3.85;;;;;;;;;;4909464;29;20084;-64
2023/05/28 17:13:41;;;;;;;14.98;3.35;;;;;;;;;;4911549;29;20107;-66
2023/05/28 17:17:21;;;;;;;16.80;3.95;;;;;;;;;;4912719;29;20055;-65
2023/05/28 17:21:01;;;;;;;13.10;3.58;;;;;;;;;;4914998;29;20544;-67
2023/05/28 17:24:42;;;;;;;16.30;3.42;;;;;;;;;;4910253;29;20059;-67
2023/05/28 17:28:22;;;;;;;17.63;3.78;;;;;;;;;;4907253;29;20095;-65
2023/05/28 17:32:02;;;;;;;12.75;3.60;;;;;;;;;;4910231;29;20150;-67
2023/05/28 17:35:44;;;;;;;12.50;3.92;;;;;;;;;;4908053;29;20052;-65
2023/05/28 17:39:24;;;;;;;15.55;4.13;;;;;;;;;;4911751;29;20064;-65
2023/05/28 17:43:05;;;;;;;20.38;3.70;;;;;;;;;;4903979;29;20510;-66
2023/05/28 17:46:51;;;;;;;14.18;4.05;;;;;;;;;;4914224;29;20115;-63
2023/05/28 17:50:31;;;;;;;18.80;4.57;;;;;;;;;;4899448;29;20496;-69
2023/05/28 17:54:12;;;;;;;20.27;4.82;;;;;;;;;;4900350;29;20102;-65
2023/05/28 17:57:52;;;;;;;18.80;4.22;;;;;;;;;;4903838;29;20056;-65
2023/05/28 18:01:32;;;;;;;13.30;3.80;;;;;;;;;;4906266;29;20051;-65
2023/05/28 18:05:15;;;;;;;11.18;3.80;;;;;;;;;;4912421;29;20502;-72
2023/05/28 18:08:57;;;;;;;16.15;4.43;;;;;;;;;;4904219;29;20517;-65
2023/05/28 18:12:39;;;;;;;16.35;3.85;;;;;;;;;;4904713;29;20457;-65
2023/05/28 18:16:19;;;;;;;15.00;4.50;;;;;;;;;;4909590;29;20052;-64
2023/05/28 18:19:59;;;;;;;15.52;4.53;;;;;;;;;;4906072;29;20040;-64
2023/05/28 18:23:40;;;;;;;16.63;4.43;;;;;;;;;;4907667;29;20067;-65
2023/05/28 18:27:20;;;;;;;11.93;3.53;;;;;;;;;;4908598;29;20040;-66
2023/05/28 18:31:00;;;;;;;19.98;4.18;;;;;;;;;;4907078;29;20051;-64
2023/05/28 18:34:41;;;;;;;14.88;4.00;;;;;;;;;;4910806;29;20469;-64
2023/05/28 18:38:22;;;;;;;20.85;4.35;;;;;;;;;;4904738;29;20052;-65
2023/05/28 18:42:06;;;;;;;15.95;4.80;;;;;;;;;;4909783;29;20175;-65
2023/05/28 18:45:46;;;;;;;18.30;4.43;;;;;;;;;;4906920;29;20055;-64
2023/05/28 18:49:26;;;;;;;13.65;4.60;;;;;;;;;;4909630;29;20055;-64
2023/05/28 18:53:08;;;;;;;13.07;3.97;;;;;;;;;;4899148;29;20294;-65
2023/05/28 18:56:48;;;;;;;16.13;5.00;;;;;;;;;;4896806;29;20063;-65
2023/05/28 19:00:29;;;;;;;18.00;5.10;;;;;;;;;;4893211;29;20052;-65
2023/05/28 19:04:09;;;;;;;16.98;4.63;;;;;;;;;;4897911;29;20080;-64
2023/05/28 19:07:11;;;;;;;14.70;4.60;;;;;;;;;;4908625;29;20056;-69
2023/05/28 19:09:37;;;;;;;17.80;4.50;;;;;;;;;;4908468;29;20424;-64
2023/05/28 19:12:05;;;;;;;16.38;4.20;;;;;;;;;;4920880;29;20071;-65
2023/05/28 19:14:32;;;;;;;21.60;5.10;;;;;;;;;;4919254;29;20393;-65
2023/05/28 19:16:58;;;;;;;13.90;4.43;;;;;;;;;;4908443;29;20055;-65
2023/05/28 19:19:24;;;;;;;19.15;4.65;;;;;;;;;;4907967;29;20048;-67
2023/05/28 19:21:50;;;;;;;20.63;4.80;;;;;;;;;;4907679;29;20154;-65
2023/05/28 19:24:17;;;;;;;15.75;3.80;;;;;;;;;;4908410;29;20063;-65
2023/05/28 19:26:43;;;;;;;18.33;4.70;;;;;;;;;;4904271;29;20047;-65
2023/05/28 19:29:12;;;;;;;14.63;4.43;;;;;;;;;;4897662;29;20044;-64
2023/05/28 19:31:40;;;;;;;13.52;4.38;;;;;;;;;;4901013;29;20060;-67
2023/05/28 19:34:06;;;;;;;15.55;3.90;;;;;;;;;;4892958;29;20338;-64
2023/05/28 19:36:33;;;;;;;14.80;3.75;;;;;;;;;;4895243;29;20056;-63
2023/05/28 19:38:59;;;;;;;18.30;4.28;;;;;;;;;;4896991;29;20052;-65
2023/05/28 19:41:25;;;;;;;19.67;3.97;;;;;;;;;;4898088;29;20126;-65
2023/05/28 19:44:03;;;;;;;13.93;4.05;;;;;;;;;;4900703;29;21718;-64
2023/05/28 19:46:29;;;;;;;14.88;4.13;;;;;;;;;;4901974;29;20143;-70
2023/05/28 19:48:55;;;;;;;22.63;5.25;;;;;;;;;;4892992;29;20059;-64
2023/05/28 19:51:23;;;;;;;17.98;4.97;;;;;;;;;;4896628;29;20478;-64
2023/05/28 19:53:51;;;;;;;15.40;3.88;;;;;;;;;;4897504;29;20064;-63
2023/05/28 19:56:18;;;;;;;18.08;4.95;;;;;;;;;;4896840;29;20057;-65
2023/05/28 19:58:44;;;;;;;19.13;4.78;;;;;;;;;;4916907;29;20052;-65
2023/05/28 20:01:10;;;;;;;16.23;4.00;;;;;;;;;;4895414;29;20147;-65
2023/05/28 20:03:37;;;;;;;20.88;4.30;;;;;;;;;;4901318;29;20453;-64
2023/05/28 20:06:03;;;;;;;18.85;4.55;;;;;;;;;;4906436;29;20493;-65
2023/05/28 20:08:30;;;;;;;14.57;4.22;;;;;;;;;;4903828;29;20223;-66
2023/05/28 20:10:57;;;;;;;13.70;3.60;;;;;;;;;;4901144;29;20584;-64
2023/05/28 20:13:26;;;;;;;19.30;4.43;;;;;;;;;;4903990;29;20060;-64
2023/05/28 20:15:52;;;;;;;17.30;4.05;;;;;;;;;;4900580;29;20218;-62
2023/05/28 20:18:18;;;;;;;14.18;3.88;;;;;;;;;;4903041;29;20060;-65
2023/05/28 20:20:47;;;;;;;14.43;3.50;;;;;;;;;;4900649;29;20064;-64
2023/05/28 20:23:16;;;;;;;13.73;3.42;;;;;;;;;;4904744;29;20059;-63
2023/05/28 20:25:41;;;;;;;13.88;4.03;;;;;;;;;;4905416;29;20052;-65
2023/05/28 20:28:08;;;;;;;16.30;3.55;;;;;;;;;;4902202;29;20420;-64